createdAt,value
2018-07-11T05:00:24.785Z,6.33
2018-07-11T05:02:53.134Z,6.37
2018-07-11T05:05:21.344Z,6.17
2018-07-11T05:07:49.857Z,5.97
2018-07-11T05:10:18.180Z,6.10
2018-07-11T05:12:46.449Z,6.73
2018-07-11T05:15:14.709Z,6.53
2018-07-11T05:17:42.947Z,6.80
2018-07-11T05:20:11.149Z,6.60
2018-07-11T05:22:39.355Z,7.40
2018-07-11T05:25:07.643Z,6.73
2018-07-11T05:27:35.887Z,6.13
2018-07-11T05:30:04.088Z,6.47
2018-07-11T05:32:32.281Z,6.33
2018-07-11T05:35:00.485Z,6.20
2018-07-11T05:37:28.706Z,6.70
2018-07-11T05:39:56.978Z,7.50
2018-07-11T05:42:25.215Z,6.23
2018-07-11T05:44:53.396Z,7.53
2018-07-11T05:47:21.609Z,6.83
2018-07-11T05:49:49.829Z,6.50
2018-07-11T05:52:18.052Z,7.97
2018-07-11T05:54:46.265Z,7.53
2018-07-11T05:57:14.499Z,6.90
2018-07-11T05:59:42.716Z,6.83
2018-07-11T06:02:10.961Z,6.63
2018-07-11T06:04:39.248Z,6.53
2018-07-11T06:07:07.482Z,7.63
2018-07-11T06:09:35.705Z,6.47
2018-07-11T06:12:03.896Z,6.43
2018-07-11T06:14:32.130Z,5.90
2018-07-11T06:17:01.068Z,6.53
2018-07-11T06:19:29.289Z,5.30
2018-07-11T06:21:57.489Z,5.77
2018-07-11T06:24:25.646Z,5.63
2018-07-11T06:26:54.192Z,6.43
2018-07-11T06:29:22.504Z,5.90
2018-07-11T06:31:50.682Z,6.33
2018-07-11T06:34:19.101Z,6.03
2018-07-11T06:36:47.281Z,6.07
2018-07-11T06:39:15.492Z,5.83
2018-07-11T06:41:43.702Z,5.67
2018-07-11T06:44:11.934Z,5.90
2018-07-11T06:46:40.009Z,4.93
2018-07-11T06:49:08.481Z,4.93
2018-07-11T06:51:36.697Z,5.47
2018-07-11T06:54:05.129Z,5.53
2018-07-11T06:56:34.272Z,5.80
2018-07-11T06:59:02.590Z,6.00
2018-07-11T07:01:30.740Z,6.53
2018-07-11T07:03:58.965Z,6.43
2018-07-11T07:06:27.156Z,6.47
2018-07-11T07:08:55.346Z,6.30
2018-07-11T07:11:23.596Z,6.33
2018-07-11T07:13:51.931Z,5.87
2018-07-11T07:16:20.149Z,6.00
2018-07-11T07:18:48.299Z,6.40
2018-07-11T07:21:16.468Z,5.60
2018-07-11T07:23:44.599Z,5.50
2018-07-11T07:26:12.801Z,6.57
2018-07-11T07:28:41.015Z,6.33
2018-07-11T07:31:09.225Z,6.17
2018-07-11T07:33:44.239Z,6.30
2018-07-11T07:36:12.433Z,6.03
2018-07-11T07:38:42.636Z,5.93
2018-07-11T07:41:10.965Z,5.87
2018-07-11T07:43:40.714Z,6.53
2018-07-11T07:46:08.972Z,6.83
2018-07-11T07:48:37.256Z,6.73
2018-07-11T07:51:05.490Z,6.60
2018-07-11T07:53:33.945Z,6.87
2018-07-11T07:56:02.385Z,6.47
2018-07-11T07:58:30.775Z,6.20
2018-07-11T08:00:59.015Z,6.13
2018-07-11T08:03:27.803Z,6.13
2018-07-11T08:05:56.061Z,5.87
2018-07-11T08:08:24.297Z,5.87
2018-07-11T08:10:52.528Z,6.23
2018-07-11T08:13:20.757Z,7.43
2018-07-11T08:15:48.964Z,7.20
2018-07-11T08:18:17.195Z,6.80
2018-07-11T08:20:45.383Z,7.07
2018-07-11T08:23:25.761Z,5.70
2018-07-11T08:26:06.490Z,7.03
2018-07-11T08:28:48.789Z,5.80
2018-07-11T08:31:27.181Z,6.03
2018-07-11T08:34:17.274Z,6.23
2018-07-11T08:38:59.720Z,6.27
2018-07-11T08:43:41.729Z,5.70
2018-07-11T08:46:23.381Z,6.50
2018-07-11T08:51:10.433Z,5.43
2018-07-11T08:53:51.673Z,5.70
2018-07-11T08:56:36.371Z,6.03
2018-07-11T16:52:17.949Z,1.97
2018-07-11T17:16:07.730Z,3.57
2018-07-11T17:22:12.611Z,3.20
2018-07-11T17:49:40.254Z,2.83
